createdAt,value
2018-04-11T00:00:19.827Z,16.67
2018-04-11T00:02:47.268Z,17.70
2018-04-11T00:05:14.708Z,13.90
2018-04-11T00:07:42.934Z,17.63
2018-04-11T00:10:10.368Z,16.00
2018-04-11T00:12:37.956Z,16.03
2018-04-11T00:15:05.396Z,17.83
2018-04-11T00:17:32.846Z,15.40
2018-04-11T00:20:00.528Z,15.63
2018-04-11T00:22:27.968Z,17.27
2018-04-11T00:24:55.417Z,17.37
2018-04-11T00:27:22.883Z,16.80
2018-04-11T00:29:50.330Z,17.30
2018-04-11T00:32:17.778Z,15.07
2018-04-11T00:34:45.215Z,16.97
2018-04-11T00:37:13.428Z,17.87
2018-04-11T00:39:40.873Z,17.33
2018-04-11T00:42:08.312Z,18.07
2018-04-11T00:44:35.751Z,18.00
2018-04-11T00:47:03.954Z,19.23
2018-04-11T00:49:31.403Z,20.07
2018-04-11T00:51:58.853Z,19.60
2018-04-11T00:54:26.288Z,18.33
2018-04-11T00:56:54.509Z,19.90
2018-04-11T00:59:21.967Z,17.90
2018-04-11T01:01:49.442Z,21.87
2018-04-11T01:04:17.092Z,22.00
2018-04-11T01:06:44.534Z,22.17
2018-04-11T01:09:11.978Z,21.60
2018-04-11T01:11:39.442Z,20.83
2018-04-11T01:14:06.888Z,20.77
2018-04-11T01:16:34.332Z,21.87
2018-04-11T01:19:01.770Z,19.30
2018-04-11T01:21:29.220Z,23.43
2018-04-11T01:23:56.666Z,19.83
2018-04-11T01:26:24.117Z,18.13
2018-04-11T01:28:51.565Z,18.50
2018-04-11T01:31:19.001Z,16.80
2018-04-11T01:33:46.486Z,19.30
2018-04-11T01:36:13.934Z,17.77
2018-04-11T01:38:41.365Z,19.17
2018-04-11T01:41:08.931Z,17.03
2018-04-11T01:43:36.401Z,17.43
2018-04-11T01:46:03.850Z,17.33
2018-04-11T01:48:31.313Z,15.43
2018-04-11T01:50:58.784Z,16.43
2018-04-11T01:53:26.226Z,17.23
2018-04-11T01:55:53.670Z,16.53
2018-04-11T01:58:21.162Z,16.63
2018-04-11T02:00:48.595Z,16.83
2018-04-11T02:03:16.038Z,16.50
2018-04-11T02:05:43.497Z,15.90
2018-04-11T02:08:10.969Z,16.00
2018-04-11T02:10:38.512Z,17.13
2018-04-11T02:13:05.944Z,16.43
2018-04-11T02:15:33.380Z,14.73
2018-04-11T02:18:01.599Z,16.57
2018-04-11T02:20:29.037Z,15.43
2018-04-11T02:22:56.478Z,15.93
2018-04-11T02:25:24.690Z,16.10
2018-04-11T02:27:52.164Z,15.37
2018-04-11T02:30:19.600Z,16.73
2018-04-11T02:32:47.050Z,15.97
2018-04-11T02:35:14.497Z,16.77
2018-04-11T02:37:41.955Z,16.17
2018-04-11T02:40:09.444Z,15.37
2018-04-11T02:42:36.884Z,15.43
2018-04-11T02:45:04.463Z,16.03
2018-04-11T02:47:31.920Z,15.67
2018-04-11T02:49:59.354Z,15.20
2018-04-11T02:52:26.801Z,16.97
2018-04-11T02:54:54.254Z,14.70
2018-04-11T02:57:21.743Z,14.83
2018-04-11T02:59:49.179Z,13.23
2018-04-11T03:02:16.748Z,13.83
2018-04-11T03:04:44.182Z,14.97
2018-04-11T03:07:11.632Z,14.57
2018-04-11T03:09:39.077Z,15.67
2018-04-11T03:12:07.297Z,11.40
2018-04-11T03:14:34.731Z,12.27
2018-04-11T03:17:02.178Z,13.03
2018-04-11T03:19:29.620Z,12.27
2018-04-11T03:21:57.931Z,10.97
2018-04-11T03:24:25.612Z,8.17
2018-04-11T03:26:53.046Z,9.93
2018-04-11T03:29:20.470Z,9.63
2018-04-11T03:31:47.910Z,9.73
2018-04-11T03:34:15.368Z,9.43
2018-04-11T03:36:42.802Z,9.50
2018-04-11T03:39:10.248Z,8.63
2018-04-11T03:41:37.697Z,10.07
2018-04-11T03:44:05.129Z,9.97
2018-04-11T03:46:32.582Z,9.83
2018-04-11T03:49:00.777Z,9.50
2018-04-11T03:51:28.216Z,9.87
2018-04-11T03:53:55.665Z,12.07
2018-04-11T03:56:23.861Z,9.67
2018-04-11T03:58:51.372Z,10.68
2018-04-11T04:01:19.584Z,10.27
2018-04-11T04:03:47.029Z,9.73
2018-04-11T04:06:14.485Z,10.23
2018-04-11T04:08:41.921Z,10.70
2018-04-11T04:11:10.147Z,10.53
2018-04-11T04:13:49.595Z,10.40
2018-04-11T04:16:29.690Z,9.83
2018-04-11T04:19:09.823Z,10.60
2018-04-11T04:21:37.271Z,8.93
2018-04-11T04:24:05.650Z,11.33
2018-04-11T04:26:33.089Z,16.07
2018-04-11T04:29:00.555Z,15.70
2018-04-11T04:31:27.992Z,11.30
2018-04-11T04:33:55.428Z,9.67
2018-04-11T04:36:22.883Z,10.83
2018-04-11T04:38:50.330Z,11.33
2018-04-11T04:41:18.540Z,10.27
2018-04-11T04:43:45.969Z,11.53
2018-04-11T04:46:13.412Z,11.83
2018-04-11T04:48:41.622Z,11.33
2018-04-11T04:51:09.082Z,11.60
2018-04-11T04:53:36.852Z,11.27
2018-04-11T04:56:04.277Z,10.57
2018-04-11T04:58:31.708Z,13.60
2018-04-11T05:00:59.929Z,14.30
2018-04-11T05:03:27.364Z,13.47
2018-04-11T05:05:54.819Z,16.97
2018-04-11T05:08:23.025Z,16.80
2018-04-11T05:10:50.499Z,13.03
2018-04-11T05:13:17.929Z,16.23
2018-04-11T05:15:45.373Z,15.63
2018-04-11T05:18:12.809Z,16.67
2018-04-11T05:20:41.026Z,16.13
2018-04-11T05:23:08.697Z,21.27
2018-04-11T05:25:36.140Z,14.87
2018-04-11T05:28:03.570Z,17.70
2018-04-11T05:30:31.277Z,16.73
2018-04-11T05:32:58.717Z,19.23
2018-04-11T05:35:26.149Z,16.67
2018-04-11T05:37:53.621Z,19.20
2018-04-11T05:40:21.041Z,16.57
2018-04-11T05:42:49.266Z,20.67
2018-04-11T05:45:16.702Z,17.87
2018-04-11T05:47:44.151Z,16.97
2018-04-11T05:50:11.593Z,18.63
2018-04-11T05:52:39.797Z,20.20
2018-04-11T05:55:07.241Z,17.90
2018-04-11T05:57:34.696Z,17.93
2018-04-11T06:00:02.172Z,16.10
2018-04-11T06:02:29.596Z,23.50
2018-04-11T06:04:57.045Z,18.33
2018-04-11T06:07:25.264Z,17.37
2018-04-11T06:09:52.705Z,18.70
2018-04-11T06:12:20.187Z,14.97
2018-04-11T06:14:47.624Z,13.63
2018-04-11T06:17:15.592Z,21.03
2018-04-11T06:19:43.021Z,14.40
2018-04-11T06:22:11.221Z,15.33
2018-04-11T06:24:38.672Z,12.00
2018-04-11T06:27:06.103Z,14.37
2018-04-11T06:29:34.311Z,14.17
2018-04-11T06:32:01.815Z,13.87
2018-04-11T06:34:29.241Z,14.30
2018-04-11T06:36:56.679Z,14.43
2018-04-11T06:39:24.133Z,14.83
2018-04-11T06:41:51.581Z,14.53
2018-04-11T06:44:19.020Z,16.67
2018-04-11T06:46:47.225Z,12.90
2018-04-11T06:49:14.676Z,10.73
2018-04-11T06:51:42.104Z,13.10
2018-04-11T06:54:10.325Z,12.67
2018-04-11T06:56:37.759Z,7.67
2018-04-11T06:59:05.193Z,9.60
2018-04-11T07:01:33.499Z,11.77
2018-04-11T07:04:00.932Z,11.10
2018-04-11T07:06:28.362Z,8.87
2018-04-11T07:08:55.888Z,9.73
2018-04-11T07:11:24.093Z,7.30
2018-04-11T07:13:51.535Z,8.20
2018-04-11T07:16:19.092Z,8.97
2018-04-11T07:18:46.840Z,9.67
2018-04-11T07:21:14.328Z,8.23
2018-04-11T07:23:41.941Z,8.87
2018-04-11T07:26:09.367Z,8.07
2018-04-11T07:28:37.577Z,6.80
2018-04-11T07:31:05.013Z,7.27
2018-04-11T07:33:32.438Z,7.83
2018-04-11T07:35:59.956Z,9.30
2018-04-11T07:38:27.391Z,8.73
2018-04-11T07:40:54.832Z,8.53
2018-04-11T07:43:22.309Z,6.43
2018-04-11T07:45:49.741Z,6.30
2018-04-11T07:48:17.946Z,7.77
2018-04-11T07:50:45.381Z,9.13
2018-04-11T07:53:12.849Z,8.00
2018-04-11T07:55:40.277Z,7.57
2018-04-11T07:58:08.488Z,8.10
2018-04-11T08:00:35.920Z,8.67
2018-04-11T08:03:03.377Z,8.30
2018-04-11T08:05:30.816Z,5.87
2018-04-11T08:07:59.031Z,5.70
2018-04-11T08:10:26.456Z,7.73
2018-04-11T08:12:54.663Z,8.30
2018-04-11T08:15:22.118Z,6.90
2018-04-11T08:17:49.552Z,7.77
2018-04-11T08:20:16.979Z,8.60
2018-04-11T08:22:44.589Z,9.03
2018-04-11T08:25:12.005Z,9.20
2018-04-11T08:27:39.468Z,8.57
2018-04-11T08:30:06.913Z,8.70
2018-04-11T08:32:34.345Z,8.50
2018-04-11T08:35:01.769Z,9.73
2018-04-11T08:37:29.217Z,8.33
2018-04-11T08:39:56.656Z,7.13
2018-04-11T08:42:24.865Z,7.57
2018-04-11T08:44:52.334Z,14.03
2018-04-11T08:47:20.006Z,9.70
2018-04-11T08:49:47.432Z,6.90
2018-04-11T08:52:14.870Z,7.37
2018-04-11T08:54:42.316Z,7.30
2018-04-11T08:57:09.749Z,7.20
2018-04-11T08:59:37.190Z,8.27
2018-04-11T09:02:04.621Z,9.90
2018-04-11T09:04:32.056Z,7.10
2018-04-11T09:06:59.501Z,7.40
2018-04-11T09:09:27.709Z,8.73
2018-04-11T09:11:55.157Z,6.07
2018-04-11T09:14:22.589Z,8.03
2018-04-11T09:16:50.800Z,6.27
2018-04-11T09:19:18.260Z,5.53
2018-04-11T09:21:45.684Z,7.33
2018-04-11T09:24:13.129Z,6.73
2018-04-11T09:26:41.331Z,6.60
2018-04-11T09:29:08.789Z,10.27
2018-04-11T09:31:36.224Z,17.50
2018-04-11T09:34:03.724Z,6.30
2018-04-11T09:36:31.168Z,11.37
2018-04-11T09:38:58.596Z,9.13
2018-04-11T09:41:26.040Z,7.30
2018-04-11T09:43:54.246Z,6.30
2018-04-11T09:46:21.689Z,4.70
2018-04-11T09:48:49.116Z,5.33
2018-04-11T09:51:17.337Z,7.53
2018-04-11T09:53:44.780Z,6.20
2018-04-11T09:56:12.216Z,7.20
2018-04-11T09:58:40.425Z,5.63
2018-04-11T10:01:07.862Z,8.03
2018-04-11T10:03:35.297Z,7.77
2018-04-11T10:06:03.491Z,4.80
2018-04-11T10:08:31.187Z,7.40
2018-04-11T10:10:58.636Z,5.47
2018-04-11T10:13:26.084Z,5.77
2018-04-11T10:15:53.528Z,8.60
2018-04-11T10:18:20.968Z,7.43
2018-04-11T10:20:49.157Z,6.37
2018-04-11T10:23:16.632Z,4.77
2018-04-11T10:25:44.073Z,9.40
2018-04-11T10:28:11.528Z,17.80
2018-04-11T10:30:38.949Z,7.60
2018-04-11T10:33:06.476Z,6.40
2018-04-11T10:35:33.942Z,7.03
2018-04-11T10:38:01.377Z,6.50
2018-04-11T10:40:28.828Z,8.80
2018-04-11T10:42:56.261Z,5.57
2018-04-11T10:45:23.712Z,5.87
2018-04-11T10:47:51.144Z,6.32
2018-04-11T10:50:18.585Z,6.47
2018-04-11T10:52:46.045Z,5.10
2018-04-11T10:55:13.465Z,5.85
2018-04-11T10:57:40.909Z,5.57
2018-04-11T11:00:08.343Z,7.40
2018-04-11T11:02:36.537Z,5.90
2018-04-11T11:05:03.981Z,5.47
2018-04-11T11:07:31.425Z,6.00
2018-04-11T11:09:59.649Z,6.10
2018-04-11T11:12:27.080Z,5.20
2018-04-11T11:14:54.532Z,5.97
2018-04-11T11:17:21.967Z,4.30
2018-04-11T11:20:01.144Z,5.57
2018-04-11T11:22:28.577Z,6.82
2018-04-11T11:24:56.032Z,7.77
2018-04-11T11:27:23.530Z,6.15
2018-04-11T11:29:50.963Z,9.90
2018-04-11T11:32:18.403Z,6.40
2018-04-11T11:34:45.840Z,6.50
2018-04-11T11:37:14.056Z,5.53
2018-04-11T11:39:41.488Z,4.28
2018-04-11T11:42:08.921Z,6.00
2018-04-11T11:44:37.140Z,5.30
2018-04-11T11:47:04.581Z,5.70
2018-04-11T11:49:32.022Z,5.70
2018-04-11T11:52:00.281Z,4.60
2018-04-11T11:54:27.676Z,4.97
2018-04-11T11:56:55.100Z,5.77
2018-04-11T11:59:23.312Z,3.90
2018-04-11T12:01:50.757Z,12.80
2018-04-11T12:04:18.189Z,10.13
2018-04-11T12:06:46.417Z,8.10
2018-04-11T12:09:13.867Z,4.23
2018-04-11T12:11:41.300Z,3.47
2018-04-11T12:14:09.196Z,5.43
2018-04-11T12:16:36.648Z,13.20
2018-04-11T12:19:04.088Z,12.43
2018-04-11T12:21:31.517Z,5.37
2018-04-11T12:23:59.736Z,5.77
2018-04-11T12:26:27.177Z,5.43
2018-04-11T12:28:54.636Z,3.90
2018-04-11T12:31:22.219Z,3.90
2018-04-11T12:33:49.651Z,4.47
2018-04-11T12:36:17.076Z,5.97
2018-04-11T12:38:45.289Z,3.90
2018-04-11T12:41:12.725Z,4.63
2018-04-11T12:43:40.156Z,4.10
2018-04-11T12:46:07.596Z,3.97
2018-04-11T12:48:35.026Z,4.37
2018-04-11T12:51:02.458Z,4.03
2018-04-11T12:53:29.920Z,4.00
2018-04-11T12:55:57.348Z,6.77
2018-04-11T12:58:24.788Z,6.43
2018-04-11T13:00:52.515Z,6.60
2018-04-11T13:03:19.953Z,7.47
2018-04-11T13:05:47.392Z,4.23
2018-04-11T13:08:14.993Z,6.07
2018-04-11T13:10:42.422Z,6.50
2018-04-11T13:13:09.896Z,4.43
2018-04-11T13:15:37.361Z,4.90
2018-04-11T13:18:04.802Z,8.40
2018-04-11T13:20:32.273Z,6.43
2018-04-11T13:22:59.715Z,6.00
2018-04-11T13:25:27.160Z,8.07
2018-04-11T13:27:54.641Z,6.33
2018-04-11T13:30:22.088Z,4.10
2018-04-11T13:32:49.552Z,5.97
2018-04-11T13:35:17.024Z,5.03
2018-04-11T13:37:44.445Z,4.50
2018-04-11T13:40:11.877Z,3.50
2018-04-11T13:42:40.084Z,3.23
2018-04-11T13:45:07.520Z,7.07
2018-04-11T13:47:34.949Z,8.63
2018-04-11T13:50:03.384Z,6.63
2018-04-11T13:52:30.812Z,4.87
2018-04-11T13:54:58.241Z,3.87
2018-04-11T13:57:26.444Z,5.33
2018-04-11T13:59:53.874Z,5.87
2018-04-11T14:02:22.211Z,4.00
2018-04-11T14:04:49.635Z,4.47
2018-04-11T14:07:17.064Z,3.33
2018-04-11T14:09:45.277Z,4.90
2018-04-11T14:12:12.700Z,3.50
2018-04-11T14:14:40.912Z,4.10
2018-04-11T14:17:08.352Z,3.40
2018-04-11T14:19:35.797Z,4.00
2018-04-11T14:22:03.232Z,4.00
2018-04-11T14:24:30.670Z,3.87
2018-04-11T14:26:58.501Z,6.17
2018-04-11T14:29:25.946Z,7.73
2018-04-11T14:31:54.109Z,5.77
2018-04-11T14:34:21.553Z,4.33
2018-04-11T14:36:49.988Z,5.43
2018-04-11T14:39:17.422Z,4.70
2018-04-11T14:41:44.862Z,3.10
2018-04-11T14:44:12.297Z,4.27
2018-04-11T14:46:40.515Z,6.77
2018-04-11T14:49:07.944Z,5.83
2018-04-11T14:51:36.166Z,4.77
2018-04-11T14:54:03.701Z,5.17
2018-04-11T14:56:31.144Z,17.37
2018-04-11T14:58:58.569Z,9.10
2018-04-11T15:01:26.772Z,6.03
2018-04-11T15:03:54.232Z,6.17
2018-04-11T15:06:21.672Z,5.97
2018-04-11T15:08:50.030Z,5.73
2018-04-11T15:11:17.481Z,5.47
2018-04-11T15:13:44.925Z,7.20
2018-04-11T15:16:12.482Z,8.53
2018-04-11T15:18:39.912Z,6.43
2018-04-11T15:21:07.340Z,13.20
2018-04-11T15:23:34.788Z,9.03
2018-04-11T15:26:03.009Z,8.67
2018-04-11T15:28:30.424Z,9.53
2018-04-11T15:30:57.860Z,8.10
2018-04-11T15:33:26.055Z,9.37
2018-04-11T15:35:53.489Z,6.67
2018-04-11T15:38:21.708Z,7.40
2018-04-11T15:40:49.128Z,8.30
2018-04-11T15:43:17.460Z,7.10
2018-04-11T15:45:44.905Z,6.50
2018-04-11T15:48:12.373Z,6.10
2018-04-11T15:50:39.829Z,7.53
2018-04-11T15:53:07.266Z,5.80
2018-04-11T15:55:34.851Z,5.93
2018-04-11T15:58:02.286Z,4.70
2018-04-11T16:00:29.739Z,8.27
2018-04-11T16:02:57.185Z,6.73
2018-04-11T16:05:24.670Z,10.47
2018-04-11T16:07:53.049Z,7.23
2018-04-11T16:10:20.478Z,5.17
2018-04-11T16:12:47.909Z,5.17
2018-04-11T16:15:16.118Z,4.90
2018-04-11T16:17:43.678Z,6.20
2018-04-11T16:20:11.146Z,6.33
2018-04-11T16:22:38.576Z,5.10
2018-04-11T16:25:06.014Z,5.43
2018-04-11T16:27:34.230Z,6.03
2018-04-11T16:30:01.661Z,10.50
2018-04-11T16:32:29.109Z,6.13
2018-04-11T16:34:57.300Z,6.67
2018-04-11T16:37:24.891Z,8.70
2018-04-11T16:39:52.316Z,7.53
2018-04-11T16:42:19.761Z,6.87
2018-04-11T16:44:48.178Z,7.80
2018-04-11T16:47:15.606Z,5.10
2018-04-11T16:49:43.042Z,10.47
2018-04-11T16:52:11.246Z,7.57
2018-04-11T16:54:38.676Z,8.13
2018-04-11T16:57:06.889Z,8.37
2018-04-11T16:59:34.324Z,7.00
2018-04-11T17:02:01.755Z,13.20
2018-04-11T17:04:29.972Z,9.50
2018-04-11T17:06:57.421Z,9.13
2018-04-11T17:09:24.844Z,6.80
2018-04-11T17:11:53.072Z,9.77
2018-04-11T17:14:20.511Z,6.47
2018-04-11T17:16:47.948Z,6.53
2018-04-11T17:19:15.385Z,6.23
2018-04-11T17:21:55.646Z,6.40
2018-04-11T17:24:35.769Z,7.40
2018-04-11T17:27:15.186Z,11.77
2018-04-11T17:29:54.405Z,8.53
2018-04-11T17:32:21.856Z,10.13
2018-04-11T17:34:49.293Z,10.90
2018-04-11T17:37:16.740Z,10.50
2018-04-11T17:39:44.961Z,8.40
2018-04-11T17:42:12.400Z,8.57
2018-04-11T17:44:39.853Z,8.83
2018-04-11T17:47:07.313Z,9.80
2018-04-11T17:49:35.080Z,9.07
2018-04-11T17:52:02.497Z,9.33
2018-04-11T17:54:30.696Z,9.17
2018-04-11T17:56:59.124Z,11.53
2018-04-11T17:59:28.065Z,9.37
2018-04-11T18:01:55.488Z,10.20
2018-04-11T18:04:23.706Z,12.90
2018-04-11T18:06:51.137Z,9.37
2018-04-11T18:09:19.676Z,12.57
2018-04-11T18:11:47.104Z,11.73
2018-04-11T18:14:14.700Z,8.20
2018-04-11T18:16:42.142Z,11.63
2018-04-11T18:19:09.581Z,10.93
2018-04-11T18:21:37.038Z,10.27
2018-04-11T18:24:04.459Z,10.60
2018-04-11T18:26:32.676Z,9.83
2018-04-11T18:29:00.112Z,10.57
2018-04-11T18:31:27.536Z,8.80
2018-04-11T18:33:55.801Z,10.80
2018-04-11T18:36:23.229Z,11.70
2018-04-11T18:38:50.665Z,10.83
2018-04-11T18:41:18.355Z,13.40
2018-04-11T18:43:45.814Z,14.60
2018-04-11T18:46:13.229Z,10.73
2018-04-11T18:48:40.700Z,12.60
2018-04-11T18:51:08.129Z,12.23
2018-04-11T18:53:36.350Z,13.37
2018-04-11T18:56:03.796Z,10.47
2018-04-11T18:58:31.233Z,12.00
2018-04-11T19:00:58.681Z,11.97
2018-04-11T19:03:26.116Z,11.60
2018-04-11T19:05:54.437Z,10.57
2018-04-11T19:08:21.878Z,12.87
2018-04-11T19:10:49.319Z,10.77
2018-04-11T19:13:16.818Z,13.10
2018-04-11T19:15:45.489Z,13.17
2018-04-11T19:18:13.471Z,12.67
2018-04-11T19:20:41.529Z,11.07
2018-04-11T19:23:09.113Z,12.90
2018-04-11T19:25:38.109Z,12.43
2018-04-11T19:28:06.226Z,14.07
2018-04-11T19:30:34.691Z,11.40
2018-04-11T19:33:03.196Z,11.17
2018-04-11T19:35:30.744Z,11.40
2018-04-11T19:38:00.394Z,12.10
2018-04-11T19:40:28.414Z,11.23
2018-04-11T19:42:56.657Z,13.20
2018-04-11T19:45:24.214Z,11.37
2018-04-11T19:47:51.678Z,12.67
2018-04-11T19:50:19.125Z,10.97
2018-04-11T19:52:46.878Z,11.43
2018-04-11T19:55:14.475Z,13.53
2018-04-11T19:57:42.699Z,9.97
2018-04-11T20:00:10.131Z,10.13
2018-04-11T20:02:38.556Z,10.00
2018-04-11T20:05:06.713Z,11.50
2018-04-11T20:07:34.148Z,12.17
2018-04-11T20:10:01.615Z,12.33
2018-04-11T20:12:29.113Z,13.17
2018-04-11T20:14:56.561Z,10.67
2018-04-11T20:17:24.002Z,11.33
2018-04-11T20:19:51.693Z,11.37
2018-04-11T20:22:19.149Z,9.93
2018-04-11T20:24:46.636Z,11.67
2018-04-11T20:27:14.856Z,9.50
2018-04-11T20:29:42.521Z,12.33
2018-04-11T20:32:09.952Z,9.83
2018-04-11T20:34:37.389Z,11.03
2018-04-11T20:37:04.997Z,10.73
2018-04-11T20:39:32.433Z,10.60
2018-04-11T20:41:59.869Z,12.30
2018-04-11T20:44:27.325Z,10.17
2018-04-11T20:46:54.752Z,10.80
2018-04-11T20:49:22.201Z,10.70
2018-04-11T20:51:49.640Z,10.73
2018-04-11T20:54:17.098Z,9.57
2018-04-11T20:56:44.524Z,10.27
2018-04-11T20:59:11.953Z,8.90
2018-04-11T21:01:40.377Z,13.23
2018-04-11T21:04:07.825Z,9.30
2018-04-11T21:06:35.256Z,8.83
2018-04-11T21:09:02.692Z,9.40
2018-04-11T21:11:30.917Z,11.23
2018-04-11T21:13:58.360Z,9.63
2018-04-11T21:16:25.788Z,10.27
2018-04-11T21:18:53.992Z,9.73
2018-04-11T21:21:21.453Z,12.43
2018-04-11T21:23:48.887Z,10.50
2018-04-11T21:26:16.312Z,14.53
2018-04-11T21:28:43.762Z,10.17
2018-04-11T21:31:11.212Z,15.33
2018-04-11T21:33:39.413Z,11.90
2018-04-11T21:36:07.621Z,12.23
2018-04-11T21:38:35.217Z,13.80
2018-04-11T21:41:02.640Z,8.73
2018-04-11T21:43:30.085Z,11.90
2018-04-11T21:45:57.517Z,12.70
2018-04-11T21:48:25.955Z,10.83
2018-04-11T21:50:53.386Z,11.63
2018-04-11T21:53:20.860Z,12.93
2018-04-11T21:55:48.309Z,13.27
2018-04-11T21:58:15.758Z,13.07
2018-04-11T22:00:43.197Z,10.47
2018-04-11T22:03:10.688Z,9.03
2018-04-11T22:05:38.136Z,11.77
2018-04-11T22:08:05.586Z,10.43
2018-04-11T22:10:33.175Z,10.93
2018-04-11T22:13:00.616Z,10.53
2018-04-11T22:15:28.047Z,10.83
2018-04-11T22:17:55.496Z,11.43
2018-04-11T22:20:22.940Z,13.67
2018-04-11T22:22:51.144Z,12.67
2018-04-11T22:25:18.580Z,13.23
2018-04-11T22:27:46.029Z,9.47
2018-04-11T22:30:14.219Z,11.63
2018-04-11T22:32:41.649Z,8.07
2018-04-11T22:35:09.867Z,12.23
2018-04-11T22:37:37.317Z,9.17
2018-04-11T22:40:04.736Z,10.37
2018-04-11T22:42:32.952Z,12.43
2018-04-11T22:45:00.628Z,10.37
2018-04-11T22:47:28.071Z,9.43
2018-04-11T22:49:55.536Z,7.97
2018-04-11T22:52:23.200Z,9.27
2018-04-11T22:54:50.638Z,10.80
2018-04-11T22:57:18.065Z,8.13
2018-04-11T22:59:46.280Z,14.80
2018-04-11T23:02:13.704Z,8.03
2018-04-11T23:04:41.197Z,7.50
2018-04-11T23:07:08.642Z,7.43
2018-04-11T23:09:36.068Z,11.00
2018-04-11T23:12:04.262Z,8.07
2018-04-11T23:14:31.700Z,7.83
2018-04-11T23:16:59.907Z,8.67
2018-04-11T23:19:27.347Z,7.77
2018-04-11T23:21:54.764Z,6.33
2018-04-11T23:24:22.214Z,5.30
2018-04-11T23:26:49.647Z,6.13
2018-04-11T23:29:17.095Z,4.73
2018-04-11T23:31:44.501Z,8.27
2018-04-11T23:34:12.715Z,9.63
2018-04-11T23:36:40.144Z,9.37
2018-04-11T23:39:08.592Z,7.37
2018-04-11T23:41:36.028Z,8.67
2018-04-11T23:44:03.471Z,8.10
2018-04-11T23:46:30.915Z,5.37
2018-04-11T23:48:58.337Z,6.60
2018-04-11T23:51:26.552Z,5.80
2018-04-11T23:53:53.984Z,8.70
2018-04-11T23:56:21.425Z,5.43
2018-04-11T23:58:48.852Z,7.23
